Terminal Aerodrome Forecast
Issued by NWS Portland, OR

Home | Current Version | Previous Version | Text Only | Print | Product List | Glossary On
Versions: 1 2 3 4 5 6 7 8 9 10 11 12 13 14 15 16 17 18 19 20 21 22 23 24
000
FTUS46 KPQR 100545
TAFEUG
TAF
KEUG 100545Z 1006/1106 18010KT P6SM -RA SCT025 OVC040
     FM100800 20006KT 6SM -SHRA BR SCT015 OVC025
     FM101200 20004KT 5SM BR VCSH BKN012 OVC025
     FM101700 20007KT 6SM BR VCSH BKN025 BKN040
     FM102100 20010KT P6SM -SHRA SCT015 BKN025 OVC040=

USA.gov is the U.S. government's official web portal to all federal, state and local government web resources and services.